sensor_id;sensor_type;location;lat;lon;timestamp;pressure;altitude;pressure_sealevel;temperature;humidity
6349;BME280;3207;42.648;23.406;2023-05-23T01:31:30;99672.19;;;21.16;nan
6349;BME280;3207;42.648;23.406;2023-05-23T03:16:50;99686.84;;;19.26;nan
6349;BME280;3207;42.648;23.406;2023-05-23T03:58:26;99699.75;;;18.98;nan
6349;BME280;3207;42.648;23.406;2023-05-23T06:10:59;99653.53;;;21.74;nan
6349;BME280;3207;42.648;23.406;2023-05-23T06:42:51;99660.69;;;22.57;nan
6349;BME280;3207;42.648;23.406;2023-05-23T06:47:44;99645.97;;;22.68;nan
6349;BME280;3207;42.648;23.406;2023-05-23T06:50:12;99648.53;;;22.76;nan
6349;BME280;3207;42.648;23.406;2023-05-23T06:52:39;99664.50;;;22.76;nan
6349;BME280;3207;42.648;23.406;2023-05-23T06:55:09;99656.78;;;22.87;nan
6349;BME280;3207;42.648;23.406;2023-05-23T07:02:32;99656.06;;;23.33;nan
6349;BME280;3207;42.648;23.406;2023-05-23T07:04:59;99653.19;;;23.28;nan
6349;BME280;3207;42.648;23.406;2023-05-23T07:07:25;99658.09;;;23.31;nan
6349;BME280;3207;42.648;23.406;2023-05-23T07:09:52;99657.97;;;23.59;nan
6349;BME280;3207;42.648;23.406;2023-05-23T07:12:20;99652.00;;;23.63;nan
6349;BME280;3207;42.648;23.406;2023-05-23T07:14:47;99651.63;;;23.93;nan
6349;BME280;3207;42.648;23.406;2023-05-23T07:17:14;99647.50;;;23.64;nan
6349;BME280;3207;42.648;23.406;2023-05-23T07:19:41;99648.31;;;23.84;nan
6349;BME280;3207;42.648;23.406;2023-05-23T07:22:08;99654.91;;;23.75;nan
6349;BME280;3207;42.648;23.406;2023-05-23T07:24:34;99647.09;;;23.80;nan
6349;BME280;3207;42.648;23.406;2023-05-23T07:27:02;99677.06;;;23.95;nan
6349;BME280;3207;42.648;23.406;2023-05-23T07:29:30;99659.38;;;24.21;nan
6349;BME280;3207;42.648;23.406;2023-05-23T07:31:57;99654.41;;;24.51;nan
6349;BME280;3207;42.648;23.406;2023-05-23T07:34:24;99648.25;;;24.57;nan
6349;BME280;3207;42.648;23.406;2023-05-23T07:36:52;99648.16;;;24.76;nan
6349;BME280;3207;42.648;23.406;2023-05-23T07:39:19;99644.41;;;24.97;nan
6349;BME280;3207;42.648;23.406;2023-05-23T07:41:46;99645.38;;;25.03;nan
6349;BME280;3207;42.648;23.406;2023-05-23T07:44:14;99651.28;;;25.11;nan
6349;BME280;3207;42.648;23.406;2023-05-23T07:46:43;99640.72;;;25.54;nan
6349;BME280;3207;42.648;23.406;2023-05-23T07:49:10;99647.75;;;25.80;nan
6349;BME280;3207;42.648;23.406;2023-05-23T07:54:03;99655.63;;;26.00;nan
6349;BME280;3207;42.648;23.406;2023-05-23T07:56:30;99654.28;;;26.09;nan
6349;BME280;3207;42.648;23.406;2023-05-23T07:58:57;99644.78;;;26.13;nan
6349;BME280;3207;42.648;23.406;2023-05-23T08:01:24;99655.84;;;26.60;nan
6349;BME280;3207;42.648;23.406;2023-05-23T08:03:52;99661.28;;;26.90;nan
6349;BME280;3207;42.648;23.406;2023-05-23T08:08:45;99660.19;;;26.79;nan
6349;BME280;3207;42.648;23.406;2023-05-23T08:11:12;99687.94;;;27.03;nan
6349;BME280;3207;42.648;23.406;2023-05-23T08:13:39;99657.94;;;26.94;nan
6349;BME280;3207;42.648;23.406;2023-05-23T08:16:06;99697.59;;;26.92;nan
6349;BME280;3207;42.648;23.406;2023-05-23T08:18:33;99693.25;;;26.73;nan
6349;BME280;3207;42.648;23.406;2023-05-23T08:21:02;99649.28;;;26.92;nan
6349;BME280;3207;42.648;23.406;2023-05-23T08:23:29;99653.75;;;27.28;nan
6349;BME280;3207;42.648;23.406;2023-05-23T08:25:56;99660.31;;;27.32;nan
6349;BME280;3207;42.648;23.406;2023-05-23T08:28:22;99667.22;;;27.40;nan
6349;BME280;3207;42.648;23.406;2023-05-23T08:30:49;99652.84;;;27.64;nan
6349;BME280;3207;42.648;23.406;2023-05-23T08:33:16;99647.47;;;27.88;nan
6349;BME280;3207;42.648;23.406;2023-05-23T08:35:43;99650.72;;;27.78;nan
6349;BME280;3207;42.648;23.406;2023-05-23T08:38:11;99655.75;;;28.10;nan
6349;BME280;3207;42.648;23.406;2023-05-23T08:40:38;99642.22;;;27.81;nan
6349;BME280;3207;42.648;23.406;2023-05-23T08:43:07;99647.38;;;27.94;nan
6349;BME280;3207;42.648;23.406;2023-05-23T08:45:34;99651.69;;;28.07;nan
6349;BME280;3207;42.648;23.406;2023-05-23T08:48:03;99649.91;;;27.78;nan
6349;BME280;3207;42.648;23.406;2023-05-23T08:50:34;99654.28;;;28.37;nan
6349;BME280;3207;42.648;23.406;2023-05-23T08:53:04;99647.91;;;28.55;nan
6349;BME280;3207;42.648;23.406;2023-05-23T08:55:35;99652.00;;;28.69;nan
6349;BME280;3207;42.648;23.406;2023-05-23T08:58:03;99655.00;;;28.72;nan
6349;BME280;3207;42.648;23.406;2023-05-23T09:00:30;99658.72;;;28.95;nan
6349;BME280;3207;42.648;23.406;2023-05-23T09:02:59;99652.84;;;28.98;nan
6349;BME280;3207;42.648;23.406;2023-05-23T09:05:26;99648.03;;;29.28;nan
6349;BME280;3207;42.648;23.406;2023-05-23T09:07:53;99650.00;;;29.33;nan
6349;BME280;3207;42.648;23.406;2023-05-23T09:10:21;99653.81;;;28.28;nan
6349;BME280;3207;42.648;23.406;2023-05-23T09:12:49;99648.25;;;28.70;nan
6349;BME280;3207;42.648;23.406;2023-05-23T09:15:16;99647.13;;;28.94;nan
6349;BME280;3207;42.648;23.406;2023-05-23T09:17:43;99629.72;;;29.13;nan
6349;BME280;3207;42.648;23.406;2023-05-23T09:20:13;99641.25;;;29.26;nan
6349;BME280;3207;42.648;23.406;2023-05-23T09:22:40;99637.84;;;29.30;nan
6349;BME280;3207;42.648;23.406;2023-05-23T09:25:07;99641.06;;;29.44;nan
6349;BME280;3207;42.648;23.406;2023-05-23T09:27:34;99631.75;;;29.68;nan
6349;BME280;3207;42.648;23.406;2023-05-23T09:30:07;99690.56;;;29.88;nan
6349;BME280;3207;42.648;23.406;2023-05-23T09:32:34;99625.56;;;29.68;nan
6349;BME280;3207;42.648;23.406;2023-05-23T09:35:02;99628.00;;;29.69;nan
6349;BME280;3207;42.648;23.406;2023-05-23T09:37:31;99654.00;;;29.75;nan
6349;BME280;3207;42.648;23.406;2023-05-23T09:39:58;99646.28;;;29.67;nan
6349;BME280;3207;42.648;23.406;2023-05-23T09:42:31;99623.28;;;29.60;nan
6349;BME280;3207;42.648;23.406;2023-05-23T09:44:58;99611.16;;;29.29;nan
6349;BME280;3207;42.648;23.406;2023-05-23T09:47:27;99647.94;;;29.68;nan
6349;BME280;3207;42.648;23.406;2023-05-23T09:49:54;99625.16;;;29.76;nan
6349;BME280;3207;42.648;23.406;2023-05-23T09:52:21;99625.41;;;29.74;nan
6349;BME280;3207;42.648;23.406;2023-05-23T09:54:48;99623.56;;;29.30;nan
6349;BME280;3207;42.648;23.406;2023-05-23T09:57:15;99608.38;;;29.24;nan
6349;BME280;3207;42.648;23.406;2023-05-23T09:59:47;99631.13;;;29.44;nan
6349;BME280;3207;42.648;23.406;2023-05-23T10:02:33;99618.16;;;29.30;nan
6349;BME280;3207;42.648;23.406;2023-05-23T10:05:08;99613.56;;;29.59;nan
6349;BME280;3207;42.648;23.406;2023-05-23T10:07:39;99629.47;;;29.94;nan
6349;BME280;3207;42.648;23.406;2023-05-23T10:10:09;99630.28;;;30.11;nan
6349;BME280;3207;42.648;23.406;2023-05-23T10:12:46;99622.28;;;30.16;nan
6349;BME280;3207;42.648;23.406;2023-05-23T10:15:17;99615.84;;;30.39;nan
6349;BME280;3207;42.648;23.406;2023-05-23T10:18:02;99609.66;;;30.43;nan
6349;BME280;3207;42.648;23.406;2023-05-23T10:20:32;99605.88;;;30.39;nan
6349;BME280;3207;42.648;23.406;2023-05-23T10:23:04;99602.41;;;30.66;nan
6349;BME280;3207;42.648;23.406;2023-05-23T10:25:32;99596.53;;;30.69;nan
6349;BME280;3207;42.648;23.406;2023-05-23T10:28:01;99594.19;;;30.77;nan
6349;BME280;3207;42.648;23.406;2023-05-23T10:30:29;99602.00;;;31.01;nan
6349;BME280;3207;42.648;23.406;2023-05-23T10:32:56;99599.13;;;30.85;nan
6349;BME280;3207;42.648;23.406;2023-05-23T10:35:42;99604.13;;;30.72;nan
6349;BME280;3207;42.648;23.406;2023-05-23T10:38:22;99596.34;;;30.53;nan
6349;BME280;3207;42.648;23.406;2023-05-23T10:41:08;99597.19;;;30.81;nan
6349;BME280;3207;42.648;23.406;2023-05-23T10:43:44;99618.50;;;31.04;nan
6349;BME280;3207;42.648;23.406;2023-05-23T10:46:12;99596.16;;;31.41;nan
6349;BME280;3207;42.648;23.406;2023-05-23T10:48:40;99594.84;;;31.11;nan
6349;BME280;3207;42.648;23.406;2023-05-23T10:51:10;99601.38;;;30.93;nan
6349;BME280;3207;42.648;23.406;2023-05-23T10:53:40;99600.13;;;31.06;nan
6349;BME280;3207;42.648;23.406;2023-05-23T10:56:07;99588.97;;;31.19;nan
6349;BME280;3207;42.648;23.406;2023-05-23T10:58:36;99592.78;;;30.31;nan
6349;BME280;3207;42.648;23.406;2023-05-23T11:01:06;99699.13;;;30.35;nan
6349;BME280;3207;42.648;23.406;2023-05-23T11:03:35;99579.16;;;30.60;nan
6349;BME280;3207;42.648;23.406;2023-05-23T11:06:03;99581.19;;;30.31;nan
6349;BME280;3207;42.648;23.406;2023-05-23T11:08:39;99587.03;;;30.66;nan
6349;BME280;3207;42.648;23.406;2023-05-23T11:11:07;99595.66;;;30.90;nan
6349;BME280;3207;42.648;23.406;2023-05-23T11:13:55;99582.00;;;30.75;nan
6349;BME280;3207;42.648;23.406;2023-05-23T11:16:28;99583.44;;;30.82;nan
6349;BME280;3207;42.648;23.406;2023-05-23T11:19:19;99580.94;;;30.76;nan
6349;BME280;3207;42.648;23.406;2023-05-23T11:21:49;99570.41;;;31.01;nan
6349;BME280;3207;42.648;23.406;2023-05-23T11:24:19;99559.19;;;30.87;nan
6349;BME280;3207;42.648;23.406;2023-05-23T11:26:53;99593.00;;;30.95;nan
6349;BME280;3207;42.648;23.406;2023-05-23T11:29:25;99566.31;;;30.99;nan
6349;BME280;3207;42.648;23.406;2023-05-23T11:31:53;99596.56;;;30.74;nan
6349;BME280;3207;42.648;23.406;2023-05-23T11:34:20;99572.63;;;30.55;nan
6349;BME280;3207;42.648;23.406;2023-05-23T11:36:52;99551.53;;;30.52;nan
6349;BME280;3207;42.648;23.406;2023-05-23T11:39:21;99545.94;;;30.37;nan
6349;BME280;3207;42.648;23.406;2023-05-23T11:41:58;99558.13;;;30.62;nan
6349;BME280;3207;42.648;23.406;2023-05-23T11:44:30;99580.00;;;30.43;nan
6349;BME280;3207;42.648;23.406;2023-05-23T11:47:06;99557.66;;;30.70;nan
6349;BME280;3207;42.648;23.406;2023-05-23T11:49:36;99541.06;;;30.83;nan
6349;BME280;3207;42.648;23.406;2023-05-23T11:52:04;99532.31;;;30.71;nan
6349;BME280;3207;42.648;23.406;2023-05-23T11:54:41;99529.38;;;30.50;nan
6349;BME280;3207;42.648;23.406;2023-05-23T11:57:08;99535.97;;;30.86;nan
6349;BME280;3207;42.648;23.406;2023-05-23T11:59:35;99525.78;;;31.25;nan
6349;BME280;3207;42.648;23.406;2023-05-23T12:02:02;99538.06;;;31.75;nan
6349;BME280;3207;42.648;23.406;2023-05-23T12:04:29;99524.66;;;32.00;nan
6349;BME280;3207;42.648;23.406;2023-05-23T12:07:03;99524.13;;;32.04;nan
6349;BME280;3207;42.648;23.406;2023-05-23T12:09:40;99523.84;;;32.00;nan
6349;BME280;3207;42.648;23.406;2023-05-23T12:12:07;99506.38;;;32.23;nan
6349;BME280;3207;42.648;23.406;2023-05-23T12:14:34;99519.75;;;32.55;nan
6349;BME280;3207;42.648;23.406;2023-05-23T12:17:03;99522.84;;;33.34;nan
6349;BME280;3207;42.648;23.406;2023-05-23T12:19:30;99500.59;;;33.53;nan
6349;BME280;3207;42.648;23.406;2023-05-23T12:22:05;99482.75;;;33.36;nan
6349;BME280;3207;42.648;23.406;2023-05-23T12:24:34;99522.28;;;32.92;nan
6349;BME280;3207;42.648;23.406;2023-05-23T12:27:02;99494.13;;;32.93;nan
6349;BME280;3207;42.648;23.406;2023-05-23T12:29:30;99503.81;;;33.60;nan
6349;BME280;3207;42.648;23.406;2023-05-23T12:31:58;99510.34;;;33.54;nan
6349;BME280;3207;42.648;23.406;2023-05-23T12:34:25;99511.44;;;33.07;nan
6349;BME280;3207;42.648;23.406;2023-05-23T12:36:54;99484.63;;;32.80;nan
6349;BME280;3207;42.648;23.406;2023-05-23T12:39:23;99500.16;;;32.22;nan
6349;BME280;3207;42.648;23.406;2023-05-23T12:41:53;99475.06;;;32.37;nan
6349;BME280;3207;42.648;23.406;2023-05-23T12:44:22;99489.16;;;32.59;nan
6349;BME280;3207;42.648;23.406;2023-05-23T12:46:49;99519.19;;;32.53;nan
6349;BME280;3207;42.648;23.406;2023-05-23T12:49:16;99482.63;;;32.45;nan
6349;BME280;3207;42.648;23.406;2023-05-23T12:51:45;99487.91;;;32.05;nan
6349;BME280;3207;42.648;23.406;2023-05-23T12:54:12;99486.56;;;32.07;nan
6349;BME280;3207;42.648;23.406;2023-05-23T12:56:39;99483.00;;;32.01;nan
6349;BME280;3207;42.648;23.406;2023-05-23T12:59:08;99479.34;;;32.23;nan
6349;BME280;3207;42.648;23.406;2023-05-23T13:01:34;99475.06;;;32.37;nan
6349;BME280;3207;42.648;23.406;2023-05-23T13:04:01;99473.69;;;32.29;nan
6349;BME280;3207;42.648;23.406;2023-05-23T13:06:31;99470.97;;;32.29;nan
6349;BME280;3207;42.648;23.406;2023-05-23T13:08:58;99469.69;;;32.52;nan
6349;BME280;3207;42.648;23.406;2023-05-23T13:11:26;99475.66;;;33.20;nan
6349;BME280;3207;42.648;23.406;2023-05-23T13:13:53;99494.06;;;33.54;nan
6349;BME280;3207;42.648;23.406;2023-05-23T13:16:21;99473.78;;;33.11;nan
6349;BME280;3207;42.648;23.406;2023-05-23T13:18:48;99468.38;;;33.31;nan
6349;BME280;3207;42.648;23.406;2023-05-23T13:21:14;99467.03;;;32.72;nan
6349;BME280;3207;42.648;23.406;2023-05-23T13:23:41;99462.16;;;32.90;nan
6349;BME280;3207;42.648;23.406;2023-05-23T13:26:08;99475.66;;;33.20;nan
6349;BME280;3207;42.648;23.406;2023-05-23T13:28:35;99476.44;;;33.66;nan
6349;BME280;3207;42.648;23.406;2023-05-23T13:31:02;99483.53;;;34.32;nan
6349;BME280;3207;42.648;23.406;2023-05-23T13:33:30;99479.13;;;34.41;nan
6349;BME280;3207;42.648;23.406;2023-05-23T13:35:57;99471.88;;;34.21;nan
6349;BME280;3207;42.648;23.406;2023-05-23T13:38:24;99472.44;;;33.33;nan
6349;BME280;3207;42.648;23.406;2023-05-23T13:40:54;99476.75;;;33.29;nan
6349;BME280;3207;42.648;23.406;2023-05-23T13:43:27;99451.28;;;33.20;nan
6349;BME280;3207;42.648;23.406;2023-05-23T13:45:54;99463.19;;;33.44;nan
6349;BME280;3207;42.648;23.406;2023-05-23T13:48:21;99451.84;;;32.71;nan
6349;BME280;3207;42.648;23.406;2023-05-23T13:50:49;99463.50;;;33.02;nan
6349;BME280;3207;42.648;23.406;2023-05-23T13:53:16;99472.13;;;33.40;nan
6349;BME280;3207;42.648;23.406;2023-05-23T13:55:43;99461.28;;;33.40;nan
6349;BME280;3207;42.648;23.406;2023-05-23T13:58:11;99464.03;;;34.20;nan
6349;BME280;3207;42.648;23.406;2023-05-23T14:00:38;99469.69;;;33.49;nan
6349;BME280;3207;42.648;23.406;2023-05-23T14:03:05;99459.94;;;33.37;nan
6349;BME280;3207;42.648;23.406;2023-05-23T14:05:32;99467.81;;;33.08;nan
6349;BME280;3207;42.648;23.406;2023-05-23T14:08:01;99455.09;;;32.79;nan
6349;BME280;3207;42.648;23.406;2023-05-23T14:10:28;99460.88;;;32.15;nan
6349;BME280;3207;42.648;23.406;2023-05-23T14:12:57;99470.56;;;31.95;nan
6349;BME280;3207;42.648;23.406;2023-05-23T14:15:25;99459.88;;;31.63;nan
6349;BME280;3207;42.648;23.406;2023-05-23T14:17:52;99463.75;;;31.41;nan
6349;BME280;3207;42.648;23.406;2023-05-23T14:20:20;99468.53;;;31.28;nan
6349;BME280;3207;42.648;23.406;2023-05-23T14:22:47;99471.03;;;31.03;nan
6349;BME280;3207;42.648;23.406;2023-05-23T14:25:16;99453.13;;;30.92;nan
6349;BME280;3207;42.648;23.406;2023-05-23T14:27:43;99459.13;;;30.99;nan
6349;BME280;3207;42.648;23.406;2023-05-23T14:30:10;99456.38;;;30.94;nan
6349;BME280;3207;42.648;23.406;2023-05-23T14:32:37;99449.78;;;30.80;nan
6349;BME280;3207;42.648;23.406;2023-05-23T14:35:05;99457.81;;;30.75;nan
6349;BME280;3207;42.648;23.406;2023-05-23T14:37:32;99459.97;;;30.73;nan
6349;BME280;3207;42.648;23.406;2023-05-23T14:39:59;99447.03;;;30.75;nan
6349;BME280;3207;42.648;23.406;2023-05-23T14:42:27;99461.28;;;30.43;nan
6349;BME280;3207;42.648;23.406;2023-05-23T14:44:54;99446.84;;;30.54;nan
6349;BME280;3207;42.648;23.406;2023-05-23T14:47:21;99439.34;;;30.35;nan
6349;BME280;3207;42.648;23.406;2023-05-23T14:49:48;99434.97;;;30.29;nan
6349;BME280;3207;42.648;23.406;2023-05-23T14:52:16;99432.19;;;30.18;nan
6349;BME280;3207;42.648;23.406;2023-05-23T14:54:42;99418.72;;;30.24;nan
6349;BME280;3207;42.648;23.406;2023-05-23T14:59:37;99426.16;;;30.11;nan
6349;BME280;3207;42.648;23.406;2023-05-23T15:02:04;99413.78;;;29.94;nan
6349;BME280;3207;42.648;23.406;2023-05-23T15:04:31;99435.41;;;30.20;nan
6349;BME280;3207;42.648;23.406;2023-05-23T15:06:58;99436.97;;;30.38;nan
6349;BME280;3207;42.648;23.406;2023-05-23T15:09:25;99429.75;;;30.22;nan
6349;BME280;3207;42.648;23.406;2023-05-23T15:11:52;99406.97;;;29.86;nan
6349;BME280;3207;42.648;23.406;2023-05-23T15:14:19;99437.72;;;29.68;nan
6349;BME280;3207;42.648;23.406;2023-05-23T15:16:48;99432.34;;;29.68;nan
6349;BME280;3207;42.648;23.406;2023-05-23T15:19:15;99420.44;;;29.64;nan
6349;BME280;3207;42.648;23.406;2023-05-23T15:21:42;99468.94;;;29.64;nan
6349;BME280;3207;42.648;23.406;2023-05-23T15:24:09;99477.41;;;29.73;nan
6349;BME280;3207;42.648;23.406;2023-05-23T15:26:36;99430.13;;;30.04;nan
6349;BME280;3207;42.648;23.406;2023-05-23T15:29:03;99432.66;;;29.94;nan
6349;BME280;3207;42.648;23.406;2023-05-23T15:31:30;99425.41;;;29.72;nan
6349;BME280;3207;42.648;23.406;2023-05-23T15:33:58;99430.22;;;29.70;nan
6349;BME280;3207;42.648;23.406;2023-05-23T15:36:25;99433.59;;;29.82;nan
6349;BME280;3207;42.648;23.406;2023-05-23T15:38:52;99436.31;;;29.82;nan
6349;BME280;3207;42.648;23.406;2023-05-23T15:41:21;99435.44;;;29.77;nan
6349;BME280;3207;42.648;23.406;2023-05-23T15:43:48;99429.78;;;29.78;nan
6349;BME280;3207;42.648;23.406;2023-05-23T15:46:15;99418.88;;;29.68;nan
6349;BME280;3207;42.648;23.406;2023-05-23T15:48:42;99414.78;;;29.44;nan
6349;BME280;3207;42.648;23.406;2023-05-23T15:51:10;99401.56;;;29.26;nan
6349;BME280;3207;42.648;23.406;2023-05-23T15:53:37;99454.47;;;29.32;nan
6349;BME280;3207;42.648;23.406;2023-05-23T15:56:04;99411.22;;;29.38;nan
6349;BME280;3207;42.648;23.406;2023-05-23T15:58:31;99411.53;;;29.42;nan
6349;BME280;3207;42.648;23.406;2023-05-23T16:00:58;99405.34;;;29.41;nan
6349;BME280;3207;42.648;23.406;2023-05-23T16:03:25;99405.72;;;29.33;nan
6349;BME280;3207;42.648;23.406;2023-05-23T16:05:52;99402.44;;;29.09;nan
6349;BME280;3207;42.648;23.406;2023-05-23T16:08:20;99402.25;;;29.16;nan
6349;BME280;3207;42.648;23.406;2023-05-23T16:10:47;99408.94;;;29.13;nan
6349;BME280;3207;42.648;23.406;2023-05-23T16:13:15;99397.84;;;28.93;nan
6349;BME280;3207;42.648;23.406;2023-05-23T16:15:41;99407.66;;;28.99;nan
6349;BME280;3207;42.648;23.406;2023-05-23T16:18:08;99441.59;;;29.00;nan
6349;BME280;3207;42.648;23.406;2023-05-23T16:20:35;99393.47;;;28.87;nan
6349;BME280;3207;42.648;23.406;2023-05-23T16:23:02;99414.44;;;29.02;nan
6349;BME280;3207;42.648;23.406;2023-05-23T16:25:30;99412.56;;;29.02;nan
6349;BME280;3207;42.648;23.406;2023-05-23T16:27:57;99436.53;;;28.87;nan
6349;BME280;3207;42.648;23.406;2023-05-23T16:30:24;99426.91;;;28.91;nan
6349;BME280;3207;42.648;23.406;2023-05-23T16:32:52;99423.38;;;29.07;nan
6349;BME280;3207;42.648;23.406;2023-05-23T16:35:19;99424.59;;;28.83;nan
6349;BME280;3207;42.648;23.406;2023-05-23T16:37:46;99415.94;;;28.48;nan
6349;BME280;3207;42.648;23.406;2023-05-23T16:40:13;99424.56;;;28.50;nan
6349;BME280;3207;42.648;23.406;2023-05-23T16:42:42;99412.44;;;28.47;nan
6349;BME280;3207;42.648;23.406;2023-05-23T16:45:09;99413.53;;;28.34;nan
6349;BME280;3207;42.648;23.406;2023-05-23T16:47:36;99406.94;;;28.25;nan
6349;BME280;3207;42.648;23.406;2023-05-23T16:50:03;99424.94;;;28.13;nan
6349;BME280;3207;42.648;23.406;2023-05-23T16:52:30;99447.34;;;27.90;nan
6349;BME280;3207;42.648;23.406;2023-05-23T16:54:57;99460.75;;;28.02;nan
6349;BME280;3207;42.648;23.406;2023-05-23T16:57:24;99433.53;;;27.87;nan
6349;BME280;3207;42.648;23.406;2023-05-23T16:59:52;99443.53;;;27.51;nan
6349;BME280;3207;42.648;23.406;2023-05-23T17:02:19;99436.31;;;27.40;nan
6349;BME280;3207;42.648;23.406;2023-05-23T17:04:46;99444.22;;;27.47;nan
6349;BME280;3207;42.648;23.406;2023-05-23T17:07:14;99458.47;;;27.47;nan
6349;BME280;3207;42.648;23.406;2023-05-23T17:09:41;99457.09;;;27.56;nan
6349;BME280;3207;42.648;23.406;2023-05-23T17:12:08;99463.25;;;27.45;nan
6349;BME280;3207;42.648;23.406;2023-05-23T17:14:34;99453.34;;;27.34;nan
6349;BME280;3207;42.648;23.406;2023-05-23T17:17:06;99461.63;;;26.98;nan
6349;BME280;3207;42.648;23.406;2023-05-23T17:19:33;99462.00;;;26.83;nan
6349;BME280;3207;42.648;23.406;2023-05-23T17:22:00;99495.78;;;27.02;nan
6349;BME280;3207;42.648;23.406;2023-05-23T17:24:28;99487.66;;;27.32;nan
6349;BME280;3207;42.648;23.406;2023-05-23T17:26:54;99474.00;;;27.45;nan
6349;BME280;3207;42.648;23.406;2023-05-23T17:29:28;99480.31;;;27.51;nan
6349;BME280;3207;42.648;23.406;2023-05-23T17:31:55;99491.19;;;27.56;nan
6349;BME280;3207;42.648;23.406;2023-05-23T17:34:23;99495.63;;;27.62;nan
6349;BME280;3207;42.648;23.406;2023-05-23T17:36:53;99505.44;;;27.68;nan
6349;BME280;3207;42.648;23.406;2023-05-23T17:39:20;99508.47;;;27.72;nan
6349;BME280;3207;42.648;23.406;2023-05-23T17:41:47;99509.75;;;27.69;nan
6349;BME280;3207;42.648;23.406;2023-05-23T17:44:14;99503.91;;;27.60;nan
6349;BME280;3207;42.648;23.406;2023-05-23T17:46:41;99523.63;;;27.31;nan
6349;BME280;3207;42.648;23.406;2023-05-23T17:49:07;99521.63;;;27.50;nan
6349;BME280;3207;42.648;23.406;2023-05-23T17:51:35;99518.72;;;27.28;nan
6349;BME280;3207;42.648;23.406;2023-05-23T17:54:02;99518.09;;;27.14;nan
6349;BME280;3207;42.648;23.406;2023-05-23T17:56:29;99559.78;;;27.17;nan
6349;BME280;3207;42.648;23.406;2023-05-23T17:58:56;99518.91;;;27.15;nan
6349;BME280;3207;42.648;23.406;2023-05-23T18:01:23;99513.53;;;27.15;nan
6349;BME280;3207;42.648;23.406;2023-05-23T18:03:50;99540.59;;;27.02;nan
6349;BME280;3207;42.648;23.406;2023-05-23T18:06:17;99519.31;;;26.88;nan
6349;BME280;3207;42.648;23.406;2023-05-23T18:08:46;99514.41;;;26.85;nan
6349;BME280;3207;42.648;23.406;2023-05-23T18:11:14;99524.31;;;26.85;nan
6349;BME280;3207;42.648;23.406;2023-05-23T18:13:41;99527.94;;;26.90;nan
6349;BME280;3207;42.648;23.406;2023-05-23T18:16:08;99538.13;;;26.70;nan
6349;BME280;3207;42.648;23.406;2023-05-23T18:18:35;99536.81;;;26.61;nan
6349;BME280;3207;42.648;23.406;2023-05-23T18:21:01;99549.41;;;26.60;nan
6349;BME280;3207;42.648;23.406;2023-05-23T18:23:28;99551.91;;;26.74;nan
6349;BME280;3207;42.648;23.406;2023-05-23T18:25:56;99557.16;;;26.69;nan
6349;BME280;3207;42.648;23.406;2023-05-23T18:28:23;99558.13;;;26.56;nan
6349;BME280;3207;42.648;23.406;2023-05-23T18:30:50;99562.59;;;26.62;nan
6349;BME280;3207;42.648;23.406;2023-05-23T18:33:17;99561.03;;;26.54;nan
6349;BME280;3207;42.648;23.406;2023-05-23T18:35:44;99575.72;;;26.52;nan
6349;BME280;3207;42.648;23.406;2023-05-23T18:38:12;99581.09;;;26.34;nan
6349;BME280;3207;42.648;23.406;2023-05-23T18:40:38;99587.78;;;26.24;nan
6349;BME280;3207;42.648;23.406;2023-05-23T18:43:07;99590.28;;;26.19;nan
6349;BME280;3207;42.648;23.406;2023-05-23T18:45:34;99595.09;;;26.36;nan
6349;BME280;3207;42.648;23.406;2023-05-23T18:48:01;99586.47;;;26.34;nan
6349;BME280;3207;42.648;23.406;2023-05-23T18:50:28;99605.63;;;26.12;nan
6349;BME280;3207;42.648;23.406;2023-05-23T18:52:54;99605.63;;;26.12;nan
6349;BME280;3207;42.648;23.406;2023-05-23T18:55:22;99606.84;;;26.16;nan
6349;BME280;3207;42.648;23.406;2023-05-23T18:57:48;99619.31;;;26.04;nan
6349;BME280;3207;42.648;23.406;2023-05-23T19:00:18;99613.78;;;25.81;nan
6349;BME280;3207;42.648;23.406;2023-05-23T19:02:45;99620.34;;;25.85;nan
6349;BME280;3207;42.648;23.406;2023-05-23T19:05:13;99617.06;;;25.83;nan
6349;BME280;3207;42.648;23.406;2023-05-23T19:07:40;99620.91;;;25.87;nan
6349;BME280;3207;42.648;23.406;2023-05-23T19:10:07;99622.72;;;25.93;nan
6349;BME280;3207;42.648;23.406;2023-05-23T19:12:34;99616.91;;;25.96;nan
6349;BME280;3207;42.648;23.406;2023-05-23T19:15:04;99634.63;;;25.97;nan
6349;BME280;3207;42.648;23.406;2023-05-23T19:17:32;99619.78;;;25.76;nan
6349;BME280;3207;42.648;23.406;2023-05-23T19:19:59;99622.94;;;25.67;nan
6349;BME280;3207;42.648;23.406;2023-05-23T19:22:26;99627.44;;;25.73;nan
6349;BME280;3207;42.648;23.406;2023-05-23T19:24:53;99639.72;;;25.80;nan
6349;BME280;3207;42.648;23.406;2023-05-23T19:27:20;99637.16;;;25.92;nan
6349;BME280;3207;42.648;23.406;2023-05-23T19:29:47;99645.19;;;25.92;nan
6349;BME280;3207;42.648;23.406;2023-05-23T19:32:14;99645.47;;;25.84;nan
6349;BME280;3207;42.648;23.406;2023-05-23T19:34:42;99656.72;;;25.68;nan
6349;BME280;3207;42.648;23.406;2023-05-23T19:37:09;99639.06;;;25.53;nan
6349;BME280;3207;42.648;23.406;2023-05-23T19:39:36;99652.19;;;25.37;nan
6349;BME280;3207;42.648;23.406;2023-05-23T19:42:07;99656.00;;;25.16;nan
6349;BME280;3207;42.648;23.406;2023-05-23T19:44:33;99647.88;;;24.98;nan
6349;BME280;3207;42.648;23.406;2023-05-23T19:47:00;99704.84;;;25.05;nan
6349;BME280;3207;42.648;23.406;2023-05-23T19:49:27;99659.31;;;25.11;nan
6349;BME280;3207;42.648;23.406;2023-05-23T19:51:58;99657.50;;;25.05;nan
6349;BME280;3207;42.648;23.406;2023-05-23T19:54:25;99672.56;;;25.00;nan
6349;BME280;3207;42.648;23.406;2023-05-23T20:01:45;99677.53;;;24.83;nan
6349;BME280;3207;42.648;23.406;2023-05-23T20:09:07;99688.66;;;24.87;nan
6349;BME280;3207;42.648;23.406;2023-05-23T20:11:34;99672.19;;;24.83;nan
6349;BME280;3207;42.648;23.406;2023-05-23T20:14:01;99675.72;;;24.70;nan
6349;BME280;3207;42.648;23.406;2023-05-23T20:16:28;99685.25;;;24.53;nan
6349;BME280;3207;42.648;23.406;2023-05-23T20:18:55;99686.91;;;24.54;nan
6349;BME280;3207;42.648;23.406;2023-05-23T20:23:49;99687.72;;;24.48;nan
6349;BME280;3207;42.648;23.406;2023-05-23T20:26:17;99694.13;;;24.47;nan
6349;BME280;3207;42.648;23.406;2023-05-23T20:28:45;99690.00;;;24.44;nan
6349;BME280;3207;42.648;23.406;2023-05-23T20:31:12;99688.56;;;24.42;nan
6349;BME280;3207;42.648;23.406;2023-05-23T20:33:39;99688.97;;;24.39;nan
6349;BME280;3207;42.648;23.406;2023-05-23T20:36:06;99689.81;;;24.33;nan